Watertown Regional Airport Watertown US
ICAO: KATY
IATA: ATY
Category: Medium
Scheduled Services: Yes

Elevation: 1749 ft
TransAlt. 18000 ft.

Airport Communications:
ASOS:126.625
MINNEAPOLIS CNTR:128.5
HURON RDO:122.5
CTAF/UNICOM:123.05

KATY Zoom In..

If you have problems with the map follow the link
https://www.worldairports.se/pages/airport.php?
ICAO=KATY

Runways:

(A) RW 12 length 6899 ft width 100 ft
---- / hdg 119

(B) RW 17 length 6894 ft width 100 ft
---- / hdg 174

(C) RW 30 length 6899 ft width 100 ft
---- / hdg 299

(D) RW 35 length 6894 ft width 100 ft
ILS 111.90 / hdg 354

Location; KATY
Day. 12 / Time. 22.53 Zulu
* Altimeter: 30.00
* Temperature: -11° c. -12.2°f.
* Wind from: 030° Speed 04 kn.
Dewpoint: -14° c.
Visibility: 10 Statute Miles.
Clouds: Overcast 1800 ft.

KATY 122253Z AUTO 03004KT 10SM OVC018 M11/M14 A3000 RMK AO2 SLP195 T11111144


Wind From 030°
Speed 04 kn.

 
 
jpsmedia worldairports.se 2019   terms of use